Time;durP1;ratioP1;P1;durP2;ratioP2;P2;SDS_P1;SDS_P2;PMS_P1;PMS_P2;Temp;Humidity;BMP_temperature;BMP_pressure;BME280_temperature;BME280_humidity;BME280_pressure;Samples;Min_cycle;Max_cycle;Signal;HPM_P1;HPM_P2
2021/03/12 00:01:00;;;;;;;0.40;0.40;;;;;;;;;;5053267;28;20444;-77
2021/03/12 00:03:31;;;;;;;0.87;0.60;;;7.50;1.00;;;;;;5056825;28;20173;-79
2021/03/12 00:06:01;;;;;;;0.80;0.50;;;7.50;1.00;;;;;;5072973;28;20393;-79
2021/03/12 00:08:38;;;;;;;2.10;0.50;;;7.50;1.00;;;;;;5054176;28;20445;-79
2021/03/12 00:11:05;;;;;;;0.60;0.40;;;7.50;1.00;;;;;;5072917;28;20455;-79
2021/03/12 00:13:31;;;;;;;0.40;0.40;;;;;;;;;;5068799;28;20797;-79
2021/03/12 00:15:57;;;;;;;0.50;0.50;;;;;;;;;;5053873;28;20445;-79
2021/03/12 00:18:42;;;;;;;1.77;0.60;;;7.40;1.00;;;;;;5073251;28;20175;-79
2021/03/12 00:21:09;;;;;;;1.47;0.50;;;7.40;1.00;;;;;;5072074;28;20429;-79
2021/03/12 00:23:39;;;;;;;0.50;0.40;;;7.40;1.00;;;;;;5068788;28;20491;-79
2021/03/12 00:26:05;;;;;;;2.00;0.83;;;7.40;1.00;;;;;;5052647;28;20391;-79
2021/03/12 00:28:31;;;;;;;0.50;0.50;;;;;;;;;;5075815;28;20854;-79
2021/03/12 00:31:02;;;;;;;1.00;0.60;;;7.50;1.00;;;;;;5071390;28;20417;-79
2021/03/12 00:33:29;;;;;;;0.50;0.50;;;7.50;1.00;;;;;;5067388;28;20421;-79
2021/03/12 00:35:55;;;;;;;0.70;0.60;;;7.60;1.00;;;;;;5069069;28;20552;-79
2021/03/12 00:38:20;;;;;;;5.60;0.97;;;7.60;1.00;;;;;;5052949;28;20501;-79
2021/03/12 00:40:55;;;;;;;6.53;0.67;;;7.60;1.00;;;;;;5056859;28;20819;-79
2021/03/12 00:43:21;;;;;;;0.50;0.50;;;;;;;;;;5059029;28;20700;-79
2021/03/12 00:45:56;;;;;;;0.50;0.50;;;7.50;1.00;;;;;;5076490;28;20444;-79
2021/03/12 00:48:22;;;;;;;0.40;0.40;;;;;;;;;;5076722;28;20443;-76
2021/03/12 00:50:48;;;;;;;1.00;0.63;;;;;;;;;;5071249;28;20410;-75
2021/03/12 00:53:15;;;;;;;1.73;1.07;;;;;;;;;;5056266;28;20492;-75
2021/03/12 00:55:41;;;;;;;2.00;0.50;;;;;;;;;;5056271;28;20473;-75
2021/03/12 00:58:07;;;;;;;0.63;0.50;;;;;;;;;;5056073;28;20394;-75
2021/03/12 01:00:37;;;;;;;1.33;0.80;;;7.30;1.00;;;;;;5056139;28;20533;-73
2021/03/12 01:03:04;;;;;;;0.80;0.57;;;7.30;1.00;;;;;;5057125;28;20398;-76
2021/03/12 01:05:30;;;;;;;6.37;0.73;;;;;;;;;;5075991;28;20517;-75
2021/03/12 01:07:56;;;;;;;0.60;0.47;;;7.30;1.00;;;;;;5075737;28;20440;-76
2021/03/12 01:10:23;;;;;;;3.73;0.50;;;7.30;1.00;;;;;;5076007;28;20869;-75
2021/03/12 01:12:49;;;;;;;6.43;0.90;;;7.30;1.00;;;;;;5075791;28;20398;-75
2021/03/12 01:15:18;;;;;;;0.40;0.40;;;7.20;1.00;;;;;;5075643;28;20910;-77
2021/03/12 01:17:44;;;;;;;1.80;0.47;;;;;;;;;;5065149;28;20413;-74
2021/03/12 01:20:17;;;;;;;0.93;0.60;;;7.20;1.00;;;;;;5074188;28;20463;-73
2021/03/12 01:22:44;;;;;;;0.77;0.60;;;7.10;1.00;;;;;;5075556;28;20413;-74
2021/03/12 01:25:13;;;;;;;0.50;0.50;;;7.10;1.00;;;;;;5075500;28;20496;-73
2021/03/12 01:27:39;;;;;;;3.17;1.13;;;7.00;1.00;;;;;;5075470;28;20425;-75
2021/03/12 01:30:15;;;;;;;0.70;0.70;;;7.00;1.00;;;;;;5075493;28;20453;-73
2021/03/12 01:32:41;;;;;;;3.73;0.80;;;7.00;1.00;;;;;;5073842;28;20907;-74
2021/03/12 01:35:07;;;;;;;1.70;0.50;;;7.00;1.00;;;;;;5056623;28;20460;-72
2021/03/12 01:37:33;;;;;;;1.97;1.00;;;7.00;1.00;;;;;;5068256;28;20282;-74
2021/03/12 01:40:00;;;;;;;1.10;0.53;;;6.90;1.00;;;;;;5075368;28;20398;-73
2021/03/12 01:42:26;;;;;;;4.32;0.50;;;6.90;1.00;;;;;;5075339;28;20432;-74
2021/03/12 01:44:52;;;;;;;4.53;0.70;;;;;;;;;;5074159;28;20534;-73
2021/03/12 01:47:17;;;;;;;2.10;0.70;;;7.00;1.00;;;;;;5075694;28;20396;-73
2021/03/12 01:49:43;;;;;;;7.77;0.50;;;;;;;;;;5068672;28;20512;-73
2021/03/12 01:52:10;;;;;;;0.30;0.30;;;;;;;;;;5055009;28;20406;-74
2021/03/12 01:54:36;;;;;;;1.60;0.87;;;;;;;;;;5055078;28;20448;-73
2021/03/12 01:57:06;;;;;;;0.60;0.50;;;7.10;1.00;;;;;;5055186;28;20432;-73
2021/03/12 01:59:32;;;;;;;0.53;0.53;;;7.10;1.00;;;;;;5055104;28;20398;-73
2021/03/12 02:01:58;;;;;;;1.90;0.80;;;7.10;1.00;;;;;;5055076;28;20418;-73
2021/03/12 02:04:24;;;;;;;3.93;0.67;;;;;;;;;;5059031;28;20436;-78
2021/03/12 02:06:51;;;;;;;1.10;0.60;;;;;;;;;;5074934;28;20416;-78
2021/03/12 02:09:17;;;;;;;1.17;0.40;;;;;;;;;;5074950;28;20931;-78
2021/03/12 02:11:48;;;;;;;0.50;0.50;;;7.00;1.00;;;;;;5075025;28;20492;-78
2021/03/12 02:14:22;;;;;;;1.73;0.80;;;7.00;1.00;;;;;;5074820;28;20446;-78
2021/03/12 02:16:56;;;;;;;1.10;0.53;;;7.00;1.00;;;;;;5071419;28;20436;-78
2021/03/12 02:19:48;;;;;;;4.83;0.50;;;7.00;1.00;;;;;;5054952;28;20429;-79
2021/03/12 02:22:14;;;;;;;0.40;0.40;;;;;;;;;;5064844;28;20413;-77
2021/03/12 02:24:51;;;;;;;1.63;0.50;;;7.20;1.00;;;;;;5074575;28;20381;-78
2021/03/12 02:27:19;;;;;;;0.50;0.50;;;7.10;1.00;;;;;;5073290;28;20781;-78
2021/03/12 02:29:48;;;;;;;1.37;0.50;;;7.10;1.00;;;;;;5067014;28;21024;-79
2021/03/12 02:32:17;;;;;;;2.83;0.60;;;7.10;1.00;;;;;;5053051;28;20418;-77
2021/03/12 02:34:46;;;;;;;0.50;0.50;;;7.00;1.00;;;;;;5066764;28;20433;-76
2021/03/12 02:37:13;;;;;;;0.40;0.40;;;6.70;1.00;;;;;;5064819;28;20437;-78
2021/03/12 02:39:45;;;;;;;0.40;0.30;;;6.60;1.00;;;;;;5074480;28;20860;-79
2021/03/12 02:42:13;;;;;;;1.03;0.40;;;6.40;1.00;;;;;;5074530;28;20752;-78
2021/03/12 02:44:39;;;;;;;0.40;0.40;;;;;;;;;;5061465;28;20411;-78
2021/03/12 02:47:16;;;;;;;0.40;0.40;;;6.10;1.00;;;;;;5054308;28;20383;-78
2021/03/12 02:49:43;;;;;;;0.32;0.32;;;5.90;1.00;;;;;;5066967;28;20453;-72
2021/03/12 02:52:09;;;;;;;1.67;0.60;;;;;;;;;;5073781;28;20220;-73
2021/03/12 02:54:35;;;;;;;0.60;0.40;;;5.70;1.00;;;;;;5073927;28;20487;-72
2021/03/12 02:57:01;;;;;;;4.23;0.50;;;;;;;;;;5072257;28;20168;-72
2021/03/12 02:59:28;;;;;;;0.40;0.40;;;;;;;;;;5073930;28;20869;-72
2021/03/12 03:01:54;;;;;;;1.77;0.70;;;5.60;1.00;;;;;;5073362;28;20437;-72
2021/03/12 03:04:21;;;;;;;0.50;0.50;;;5.50;1.00;;;;;;5073920;28;20448;-72
2021/03/12 03:06:47;;;;;;;3.53;0.50;;;;;;;;;;5071337;28;20506;-73
2021/03/12 03:09:18;;;;;;;2.00;0.97;;;5.50;1.00;;;;;;5073563;28;20612;-73
2021/03/12 03:11:45;;;;;;;0.77;0.50;;;5.50;1.00;;;;;;5073512;28;20772;-73
2021/03/12 03:14:13;;;;;;;0.50;0.50;;;5.50;1.00;;;;;;5073300;28;20159;-73
2021/03/12 03:16:39;;;;;;;6.47;1.13;;;;;;;;;;5071458;28;20161;-72
2021/03/12 03:19:06;;;;;;;0.40;0.40;;;5.50;1.00;;;;;;5052550;28;20180;-74
2021/03/12 03:21:34;;;;;;;1.95;0.50;;;5.50;1.00;;;;;;5061107;28;20646;-73
2021/03/12 03:24:00;;;;;;;1.40;0.50;;;;;;;;;;5073418;28;20174;-74
2021/03/12 03:26:26;;;;;;;0.60;0.57;;;;;;;;;;5073849;28;20174;-73
2021/03/12 03:28:52;;;;;;;0.40;0.40;;;;;;;;;;5083085;28;20672;-73
2021/03/12 03:31:19;;;;;;;0.50;0.50;;;5.80;1.00;;;;;;5093404;28;20158;-73
2021/03/12 03:33:45;;;;;;;2.13;0.50;;;;;;;;;;5082918;28;20437;-78
2021/03/12 03:36:11;;;;;;;1.20;0.60;;;6.00;1.00;;;;;;5066291;28;20444;-78
2021/03/12 03:38:37;;;;;;;2.63;0.40;;;;;;;;;;5073105;28;20191;-78
2021/03/12 03:41:13;;;;;;;0.90;0.40;;;6.20;1.00;;;;;;5073348;28;20389;-79
2021/03/12 03:43:44;;;;;;;1.43;0.50;;;6.30;1.00;;;;;;5073211;28;20645;-79
2021/03/12 03:46:11;;;;;;;0.57;0.57;;;6.40;1.00;;;;;;5073146;28;20398;-78
2021/03/12 03:48:38;;;;;;;0.50;0.50;;;6.50;1.00;;;;;;5073341;28;20474;-73
2021/03/12 03:51:07;;;;;;;4.40;0.63;;;6.40;1.00;;;;;;5064839;28;20428;-73
2021/03/12 03:53:35;;;;;;;1.67;0.67;;;6.40;1.00;;;;;;5072981;28;20615;-73
2021/03/12 03:56:02;;;;;;;1.67;0.70;;;6.40;1.00;;;;;;5072750;28;20504;-73
2021/03/12 03:58:28;;;;;;;0.60;0.60;;;;;;;;;;5071666;28;20508;-72
2021/03/12 04:00:55;;;;;;;1.17;0.50;;;6.40;1.00;;;;;;5072906;28;20456;-73
2021/03/12 04:03:21;;;;;;;2.27;0.60;;;;;;;;;;5073202;28;20389;-78
2021/03/12 04:05:48;;;;;;;1.70;0.63;;;;;;;;;;5064328;28;20958;-79
2021/03/12 04:08:14;;;;;;;0.70;0.40;;;;;;;;;;5055032;28;20492;-78
2021/03/12 04:10:40;;;;;;;4.33;0.53;;;;;;;;;;5052792;28;20430;-78
2021/03/12 04:13:06;;;;;;;5.40;0.83;;;;;;;;;;5052476;28;20473;-78
2021/03/12 04:15:32;;;;;;;1.53;0.63;;;;;;;;;;5052670;28;20402;-78
2021/03/12 04:17:58;;;;;;;4.00;0.50;;;;;;;;;;5052690;28;20744;-78
2021/03/12 04:20:24;;;;;;;1.73;0.57;;;;;;;;;;5062509;28;20409;-79
2021/03/12 04:22:51;;;;;;;0.50;0.50;;;;;;;;;;5057444;28;20406;-78
2021/03/12 04:25:20;;;;;;;0.60;0.50;;;6.20;1.00;;;;;;5071357;28;20421;-78
2021/03/12 04:27:46;;;;;;;2.30;0.50;;;;;;;;;;5072908;28;20417;-78
2021/03/12 04:30:13;;;;;;;1.30;0.53;;;6.10;1.00;;;;;;5052625;28;20485;-78
2021/03/12 04:32:39;;;;;;;4.10;0.53;;;;;;;;;;5052682;28;20402;-78
2021/03/12 04:35:07;;;;;;;7.13;0.90;;;6.00;1.00;;;;;;5060546;28;20433;-79
2021/03/12 04:37:35;;;;;;;7.67;0.80;;;6.00;1.00;;;;;;5069857;28;20448;-78
2021/03/12 04:40:01;;;;;;;3.50;0.80;;;;;;;;;;5072585;28;20758;-77
2021/03/12 04:42:27;;;;;;;8.43;0.50;;;6.00;1.00;;;;;;5072698;28;20404;-78
2021/03/12 04:44:53;;;;;;;0.88;0.63;;;;;;;;;;5071201;28;20630;-78
2021/03/12 04:47:20;;;;;;;0.73;0.50;;;5.90;1.00;;;;;;5072934;28;20521;-78
2021/03/12 04:49:47;;;;;;;0.60;0.60;;;5.90;1.00;;;;;;5072710;28;20491;-72
2021/03/12 04:52:13;;;;;;;3.22;0.98;;;5.80;1.00;;;;;;5062455;28;20410;-72
2021/03/12 04:54:40;;;;;;;3.55;0.40;;;;;;;;;;5052326;28;20156;-72
2021/03/12 04:57:06;;;;;;;3.28;0.70;;;5.80;1.00;;;;;;5052371;28;20497;-72
2021/03/12 04:59:33;;;;;;;3.20;0.80;;;5.80;1.00;;;;;;5070936;28;20205;-72
2021/03/12 05:01:59;;;;;;;0.83;0.60;;;;;;;;;;5072331;28;20206;-72
2021/03/12 05:04:25;;;;;;;0.30;0.30;;;5.80;1.00;;;;;;5071173;28;20539;-78
2021/03/12 05:06:52;;;;;;;0.98;0.70;;;;;;;;;;5054503;28;20442;-78
2021/03/12 05:09:18;;;;;;;8.87;0.50;;;;;;;;;;5052410;28;20642;-83
2021/03/12 05:11:44;;;;;;;0.70;0.50;;;;;;;;;;5052679;28;20395;-83
2021/03/12 05:14:11;;;;;;;3.03;0.60;;;5.60;1.00;;;;;;5070298;28;20491;-82
2021/03/12 05:16:37;;;;;;;1.48;0.57;;;;;;;;;;5072347;28;20390;-83
2021/03/12 05:19:03;;;;;;;15.90;1.15;;;;;;;;;;5072544;28;20183;-73
2021/03/12 05:21:29;;;;;;;0.70;0.60;;;;;;;;;;5065850;28;20172;-72
2021/03/12 05:23:55;;;;;;;6.80;0.50;;;;;;;;;;5052116;28;20754;-72
2021/03/12 05:26:20;;;;;;;0.73;0.50;;;5.70;1.00;;;;;;5071995;28;20466;-72
2021/03/12 05:28:46;;;;;;;1.00;0.57;;;;;;;;;;5075397;28;20488;-72
2021/03/12 05:31:12;;;;;;;0.50;0.43;;;5.70;1.00;;;;;;5075537;28;20159;-72
2021/03/12 05:33:38;;;;;;;3.13;0.70;;;;;;;;;;5075298;28;20170;-72
2021/03/12 05:36:04;;;;;;;2.25;0.70;;;5.70;1.00;;;;;;5071895;28;20182;-74
2021/03/12 05:38:30;;;;;;;2.37;0.73;;;;;;;;;;5069356;28;20216;-75
2021/03/12 05:40:56;;;;;;;11.50;1.70;;;;;;;;;;5075507;28;20194;-74
2021/03/12 05:43:22;;;;;;;5.13;0.80;;;;;;;;;;5075434;28;20450;-75
2021/03/12 05:45:48;;;;;;;3.40;0.65;;;;;;;;;;5075399;28;20397;-74
2021/03/12 05:48:15;;;;;;;0.93;0.60;;;5.80;1.00;;;;;;5075178;28;20297;-75
2021/03/12 05:50:41;;;;;;;6.57;1.00;;;5.80;1.00;;;;;;5073489;28;20947;-74
2021/03/12 05:53:07;;;;;;;3.23;0.70;;;;;;;;;;5072717;28;20437;-74
2021/03/12 05:55:33;;;;;;;1.73;0.85;;;5.70;1.00;;;;;;5075238;28;20186;-74
2021/03/12 05:57:59;;;;;;;2.97;0.83;;;;;;;;;;5075207;28;20254;-74
2021/03/12 06:00:26;;;;;;;4.53;0.60;;;5.70;1.00;;;;;;5075052;28;20694;-74
2021/03/12 06:02:52;;;;;;;1.85;0.75;;;;;;;;;;5074982;28;20186;-73
2021/03/12 06:05:18;;;;;;;1.73;0.77;;;;;;;;;;5075316;28;20170;-84
2021/03/12 06:07:44;;;;;;;4.93;0.73;;;;;;;;;;5062092;28;20414;-77
2021/03/12 06:10:10;;;;;;;1.75;0.70;;;5.80;1.00;;;;;;5055118;28;20491;-78
2021/03/12 06:12:36;;;;;;;7.30;0.70;;;5.80;1.00;;;;;;5058082;28;20179;-83
2021/03/12 06:15:06;;;;;;;0.90;0.75;;;5.80;1.00;;;;;;5074687;28;20221;-83
2021/03/12 06:17:44;;;;;;;5.90;1.17;;;5.80;1.00;;;;;;5074727;28;20198;-83
2021/03/12 06:20:16;;;;;;;2.10;0.70;;;5.90;1.00;;;;;;5071187;28;20807;-72
2021/03/12 06:22:55;;;;;;;0.40;0.40;;;5.90;1.00;;;;;;5070917;28;20470;-72
2021/03/12 06:25:23;;;;;;;0.90;0.60;;;6.00;1.00;;;;;;5074361;28;20183;-72
2021/03/12 06:27:52;;;;;;;1.07;0.53;;;6.00;1.00;;;;;;5074632;28;20352;-72
2021/03/12 06:30:20;;;;;;;1.70;0.70;;;6.10;1.00;;;;;;5068525;28;20452;-72
2021/03/12 06:32:52;;;;;;;3.38;0.88;;;5.90;1.00;;;;;;5069163;28;20509;-72
2021/03/12 06:35:22;;;;;;;1.47;0.70;;;6.20;1.00;;;;;;5062989;28;20191;-78
2021/03/12 06:37:52;;;;;;;1.67;0.50;;;6.20;1.00;;;;;;5069808;28;21031;-79
2021/03/12 06:40:26;;;;;;;4.10;1.33;;;6.30;1.00;;;;;;5073180;28;20776;-79
2021/03/12 06:43:11;;;;;;;2.97;0.63;;;6.30;1.00;;;;;;5073970;28;20440;-78
2021/03/12 06:45:49;;;;;;;2.53;1.30;;;6.40;1.00;;;;;;5064357;28;20416;-78
2021/03/12 06:48:25;;;;;;;0.87;0.70;;;6.50;1.00;;;;;;5064935;28;20418;-78
2021/03/12 06:51:03;;;;;;;1.17;0.83;;;6.50;1.00;;;;;;5079217;28;20429;-72
2021/03/12 06:53:34;;;;;;;1.53;0.70;;;6.60;1.00;;;;;;5069095;28;20887;-72
2021/03/12 06:56:12;;;;;;;3.77;0.63;;;6.60;1.00;;;;;;5070757;28;20420;-72
2021/03/12 06:58:38;;;;;;;0.80;0.77;;;;;;;;;;5068428;28;20902;-73
2021/03/12 07:01:25;;;;;;;1.07;0.70;;;6.80;1.00;;;;;;5063949;28;20442;-74
2021/03/12 07:04:13;;;;;;;6.90;0.63;;;6.80;1.00;;;;;;5053424;28;20555;-73
2021/03/12 07:06:47;;;;;;;1.23;0.80;;;6.80;1.00;;;;;;5054158;28;20881;-78
2021/03/12 07:09:13;;;;;;;1.90;0.80;;;;;;;;;;5052481;28;20445;-78
2021/03/12 07:11:39;;;;;;;2.57;1.37;;;;;;;;;;5054000;28;20470;-78
2021/03/12 07:14:05;;;;;;;1.67;0.83;;;;;;;;;;5053581;28;20952;-79
2021/03/12 07:16:31;;;;;;;2.57;1.00;;;;;;;;;;5053545;28;20431;-78
2021/03/12 07:18:57;;;;;;;9.30;1.57;;;;;;;;;;5053511;28;20391;-78
2021/03/12 07:21:28;;;;;;;1.43;0.90;;;6.90;1.00;;;;;;5071278;28;20898;-72
2021/03/12 07:23:58;;;;;;;5.53;1.13;;;6.90;1.00;;;;;;5073458;28;20499;-72
2021/03/12 07:26:25;;;;;;;1.10;0.80;;;6.90;1.00;;;;;;5073142;28;20938;-72
2021/03/12 07:28:56;;;;;;;1.67;0.70;;;6.90;1.00;;;;;;5077965;28;20954;-72
2021/03/12 07:31:30;;;;;;;1.20;1.10;;;7.00;1.00;;;;;;5093535;28;20772;-72
2021/03/12 07:33:57;;;;;;;2.50;0.80;;;7.20;1.00;;;;;;5083659;28;20431;-72
2021/03/12 07:36:24;;;;;;;1.17;0.90;;;7.30;1.00;;;;;;5074039;28;20947;-72
2021/03/12 07:38:51;;;;;;;0.73;0.70;;;7.30;1.00;;;;;;5071097;28;20859;-72
2021/03/12 07:41:17;;;;;;;3.70;0.93;;;;;;;;;;5072489;28;20437;-72
2021/03/12 07:43:44;;;;;;;12.80;0.63;;;7.30;1.00;;;;;;5073014;28;20398;-72
2021/03/12 07:46:13;;;;;;;2.70;0.90;;;7.30;1.00;;;;;;5073101;28;20484;-72
2021/03/12 07:48:39;;;;;;;2.10;0.60;;;;;;;;;;5072880;28;20539;-72
2021/03/12 07:51:10;;;;;;;4.20;1.40;;;7.40;1.00;;;;;;5073366;28;20389;-78
2021/03/12 07:53:48;;;;;;;6.03;1.37;;;7.50;1.00;;;;;;5088696;28;20504;-78
2021/03/12 07:56:45;;;;;;;1.47;1.00;;;7.60;1.00;;;;;;5073330;28;20420;-78
2021/03/12 07:59:14;;;;;;;4.40;1.17;;;7.80;1.00;;;;;;5011120;28;20508;-78
2021/03/12 08:01:51;;;;;;;3.63;1.20;;;7.90;1.00;;;;;;5011102;28;20430;-78
2021/03/12 08:04:34;;;;;;;3.20;0.90;;;8.00;1.00;;;;;;5010909;28;20427;-78
2021/03/12 08:07:00;;;;;;;2.13;0.90;;;;;;;;;;5011186;28;20523;-72
2021/03/12 08:09:33;;;;;;;5.07;1.23;;;8.10;1.00;;;;;;4993874;28;20494;-72
2021/03/12 08:11:59;;;;;;;1.23;0.87;;;;;;;;;;5010836;28;20388;-72
2021/03/12 08:14:25;;;;;;;2.03;1.03;;;;;;;;;;5010555;28;20400;-72
2021/03/12 08:16:56;;;;;;;2.80;1.07;;;8.40;1.00;;;;;;5010790;28;20420;-72
2021/03/12 08:19:32;;;;;;;3.93;0.90;;;8.50;1.00;;;;;;5010482;28;20763;-72
2021/03/12 08:21:59;;;;;;;2.53;1.37;;;8.70;1.00;;;;;;5006446;28;20435;-72
2021/03/12 08:24:48;;;;;;;1.93;1.00;;;8.80;1.00;;;;;;5009350;28;20477;-72
2021/03/12 08:27:38;;;;;;;1.10;0.80;;;8.80;1.00;;;;;;5010531;28;20888;-72
2021/03/12 08:30:06;;;;;;;4.77;1.00;;;8.80;1.00;;;;;;5010590;28;20842;-72
2021/03/12 08:32:35;;;;;;;1.00;0.90;;;8.60;1.00;;;;;;5010569;28;20423;-73
2021/03/12 08:35:02;;;;;;;0.77;0.70;;;8.50;1.00;;;;;;4995894;28;20429;-72
2021/03/12 08:37:28;;;;;;;4.07;1.13;;;8.40;1.00;;;;;;5052657;28;20437;-78
2021/03/12 08:40:15;;;;;;;2.97;0.77;;;8.40;1.00;;;;;;5064473;28;20425;-77
2021/03/12 08:43:03;;;;;;;24.93;1.30;;;8.60;1.00;;;;;;5052489;28;20530;-78
2021/03/12 08:45:53;;;;;;;1.13;0.83;;;8.80;1.00;;;;;;5052468;28;20386;-79
2021/03/12 08:48:21;;;;;;;2.37;0.60;;;8.80;1.00;;;;;;5052442;28;20394;-78
2021/03/12 08:50:55;;;;;;;13.20;0.80;;;8.80;1.00;;;;;;5051417;28;20414;-73
2021/03/12 08:53:23;;;;;;;0.83;0.60;;;8.70;1.00;;;;;;5052350;28;20398;-74
2021/03/12 08:55:51;;;;;;;3.90;0.80;;;8.70;1.00;;;;;;5052273;28;20390;-72
2021/03/12 08:58:34;;;;;;;0.93;0.83;;;8.70;1.00;;;;;;5052354;28;20749;-73
2021/03/12 09:01:10;;;;;;;1.00;0.70;;;8.60;1.00;;;;;;5055314;28;20930;-74
2021/03/12 09:03:37;;;;;;;3.33;0.70;;;;;;;;;;5056093;28;20476;-72
2021/03/12 09:06:11;;;;;;;2.50;0.70;;;8.60;1.00;;;;;;5070694;28;20392;-73
2021/03/12 09:08:40;;;;;;;1.00;0.90;;;8.60;1.00;;;;;;5096252;28;20432;-72
2021/03/12 09:11:10;;;;;;;1.37;0.90;;;8.60;1.00;;;;;;5087849;28;20451;-73
2021/03/12 09:13:39;;;;;;;1.60;1.07;;;8.60;1.00;;;;;;5074527;28;20876;-73
2021/03/12 09:16:06;;;;;;;1.27;1.17;;;8.70;1.00;;;;;;5061776;28;20410;-72
2021/03/12 09:18:34;;;;;;;3.33;1.23;;;8.80;1.00;;;;;;5055838;28;20390;-72
2021/03/12 09:21:08;;;;;;;3.30;1.17;;;8.90;1.00;;;;;;5070002;28;20935;-77
2021/03/12 09:23:38;;;;;;;2.87;1.10;;;9.10;1.00;;;;;;5075488;28;20402;-72
2021/03/12 09:26:06;;;;;;;2.10;1.17;;;9.20;1.00;;;;;;5075512;28;20416;-72
2021/03/12 09:28:32;;;;;;;5.23;1.47;;;;;;;;;;5075707;28;20440;-72
2021/03/12 09:30:59;;;;;;;1.90;1.00;;;9.40;1.00;;;;;;5091176;28;20390;-73
2021/03/12 09:33:48;;;;;;;2.50;1.10;;;9.40;1.00;;;;;;5075249;28;20421;-73
2021/03/12 09:36:24;;;;;;;5.07;0.80;;;9.50;1.00;;;;;;5076259;28;20444;-72
2021/03/12 09:38:52;;;;;;;7.27;0.90;;;9.50;1.00;;;;;;5075045;28;20429;-73
2021/03/12 09:41:20;;;;;;;1.10;0.90;;;9.60;1.00;;;;;;5063666;28;20425;-73
2021/03/12 09:44:01;;;;;;;1.30;0.87;;;9.80;1.00;;;;;;5075248;28;20394;-73
2021/03/12 09:46:31;;;;;;;2.70;1.03;;;9.80;1.00;;;;;;5075311;28;20488;-73
2021/03/12 09:48:58;;;;;;;1.43;1.20;;;;;;;;;;5075183;28;20441;-74
2021/03/12 09:51:25;;;;;;;3.50;1.03;;;9.90;1.00;;;;;;5075442;28;20418;-78
2021/03/12 09:53:52;;;;;;;2.03;1.00;;;9.70;1.00;;;;;;5075215;28;20390;-78
2021/03/12 09:56:20;;;;;;;2.63;1.07;;;9.70;1.00;;;;;;5075105;28;20390;-81
2021/03/12 09:58:47;;;;;;;1.00;1.00;;;;;;;;;;5075151;28;20397;-78
2021/03/12 10:01:21;;;;;;;2.63;1.03;;;9.90;1.00;;;;;;5062279;28;20419;-78
2021/03/12 10:03:47;;;;;;;3.00;2.07;;;;;;;;;;5073252;28;20417;-77
2021/03/12 10:06:14;;;;;;;1.33;0.90;;;10.40;1.00;;;;;;5062645;28;20426;-78
2021/03/12 10:08:59;;;;;;;2.30;0.90;;;10.60;1.00;;;;;;5074818;28;20449;-78
2021/03/12 10:11:25;;;;;;;1.17;0.77;;;;;;;;;;5063744;28;20417;-78
2021/03/12 10:13:51;;;;;;;3.73;0.70;;;;;;;;;;5074040;28;20488;-78
2021/03/12 10:16:17;;;;;;;2.30;1.03;;;;;;;;;;5074466;28;20429;-78
2021/03/12 10:18:43;;;;;;;3.93;0.90;;;;;;;;;;5069648;28;20496;-78
2021/03/12 10:21:09;;;;;;;1.13;0.80;;;10.10;1.00;;;;;;5064900;28;20429;-78
2021/03/12 10:23:35;;;;;;;4.27;1.60;;;;;;;;;;5074793;28;20398;-78
2021/03/12 10:26:05;;;;;;;2.70;1.00;;;10.10;1.00;;;;;;5074711;28;20385;-79
2021/03/12 10:28:32;;;;;;;2.30;0.80;;;;;;;;;;5060366;28;20540;-78
2021/03/12 10:31:00;;;;;;;1.10;0.80;;;10.30;1.00;;;;;;5054626;28;20915;-78
2021/03/12 10:33:27;;;;;;;0.60;0.60;;;10.30;1.00;;;;;;5057893;28;20421;-76
2021/03/12 10:35:58;;;;;;;4.67;1.00;;;10.40;1.00;;;;;;5074060;28;20425;-78
2021/03/12 10:38:35;;;;;;;1.63;0.90;;;10.30;1.00;;;;;;5062185;28;20450;-72
2021/03/12 10:41:22;;;;;;;5.90;0.87;;;10.30;1.00;;;;;;5069595;28;20985;-73
2021/03/12 10:43:59;;;;;;;2.63;0.87;;;10.40;1.00;;;;;;5070592;28;20451;-72
2021/03/12 10:46:24;;;;;;;1.43;0.63;;;10.70;1.00;;;;;;5074127;28;20397;-72
2021/03/12 10:48:50;;;;;;;1.07;0.50;;;;;;;;;;5072401;28;20787;-73
2021/03/12 10:51:18;;;;;;;1.53;0.60;;;10.90;1.00;;;;;;5073692;28;20168;-73
2021/03/12 10:53:55;;;;;;;2.23;1.13;;;10.90;1.00;;;;;;5074414;28;20393;-72
2021/03/12 10:56:26;;;;;;;1.80;1.07;;;11.10;1.00;;;;;;5073830;28;20389;-72
2021/03/12 10:58:53;;;;;;;2.40;0.90;;;;;;;;;;5063200;28;20928;-73
2021/03/12 11:01:29;;;;;;;3.70;1.30;;;10.90;1.00;;;;;;5069301;28;20403;-72
2021/03/12 11:03:58;;;;;;;1.90;1.00;;;11.00;1.00;;;;;;5059918;28;20429;-72
2021/03/12 11:06:32;;;;;;;3.60;0.90;;;11.10;1.00;;;;;;5075118;28;20413;-73
2021/03/12 11:08:58;;;;;;;1.10;0.80;;;11.10;1.00;;;;;;5094486;28;20462;-78
2021/03/12 11:11:26;;;;;;;1.17;1.00;;;11.10;1.00;;;;;;5092511;28;20905;-78
2021/03/12 11:13:52;;;;;;;6.17;0.80;;;;;;;;;;5053768;28;20607;-78
2021/03/12 11:16:18;;;;;;;3.63;0.70;;;11.20;1.00;;;;;;5069966;28;20455;-78
2021/03/12 11:18:44;;;;;;;1.63;0.60;;;;;;;;;;5054852;28;20479;-77
2021/03/12 11:21:11;;;;;;;0.63;0.57;;;11.40;1.00;;;;;;5065111;28;20434;-78
2021/03/12 11:23:41;;;;;;;3.27;0.83;;;11.30;1.00;;;;;;5073618;28;20484;-78
2021/03/12 11:26:08;;;;;;;4.03;0.93;;;11.20;1.00;;;;;;5073349;28;20408;-78
2021/03/12 11:28:34;;;;;;;3.33;0.83;;;;;;;;;;5072697;28;20453;-77
2021/03/12 11:31:02;;;;;;;1.43;0.53;;;10.80;1.00;;;;;;5073264;28;20534;-77
2021/03/12 11:33:28;;;;;;;1.07;0.60;;;;;;;;;;5061734;28;20425;-78
2021/03/12 11:35:54;;;;;;;0.90;0.70;;;;;;;;;;5065542;28;20913;-77
2021/03/12 11:38:20;;;;;;;7.00;0.70;;;;;;;;;;5073463;28;20785;-72
2021/03/12 11:40:48;;;;;;;5.47;1.07;;;10.70;1.00;;;;;;5073023;28;20400;-72
2021/03/12 11:43:14;;;;;;;1.20;0.50;;;;;;;;;;5070770;28;20449;-73
2021/03/12 11:45:40;;;;;;;7.00;0.50;;;;;;;;;;5073196;28;20467;-72
2021/03/12 11:48:07;;;;;;;3.57;0.70;;;11.00;1.00;;;;;;5073108;28;20747;-72
2021/03/12 11:50:35;;;;;;;0.97;0.70;;;11.10;1.00;;;;;;5072674;28;20441;-72
2021/03/12 11:53:02;;;;;;;1.20;0.70;;;11.20;1.00;;;;;;5056317;28;20456;-77
2021/03/12 11:55:28;;;;;;;1.80;0.60;;;11.20;1.00;;;;;;5051594;28;20897;-77
2021/03/12 11:57:54;;;;;;;2.50;1.13;;;;;;;;;;5052958;28;20405;-77
2021/03/12 12:00:20;;;;;;;1.03;0.60;;;11.20;1.00;;;;;;5067238;28;20409;-78
2021/03/12 12:02:50;;;;;;;5.57;0.90;;;11.30;1.00;;;;;;5072756;28;20884;-78
2021/03/12 12:05:17;;;;;;;3.13;0.83;;;11.30;1.00;;;;;;5067667;28;20172;-78
2021/03/12 12:07:43;;;;;;;1.77;0.80;;;;;;;;;;5053223;28;20437;-77
2021/03/12 12:10:11;;;;;;;2.20;0.87;;;11.40;1.00;;;;;;5060718;28;20440;-78
2021/03/12 12:12:41;;;;;;;4.23;1.20;;;11.30;1.00;;;;;;5072750;28;20395;-78
2021/03/12 12:15:08;;;;;;;1.80;0.70;;;11.40;1.00;;;;;;5072300;28;20390;-78
2021/03/12 12:17:34;;;;;;;5.37;0.90;;;;;;;;;;5072558;28;20408;-78
2021/03/12 12:20:00;;;;;;;1.90;1.00;;;;;;;;;;5069170;28;20421;-78
2021/03/12 12:22:26;;;;;;;3.37;0.80;;;;;;;;;;5067762;28;20417;-78
2021/03/12 12:24:55;;;;;;;2.30;1.00;;;;;;;;;;5077727;28;20397;-78
2021/03/12 12:27:22;;;;;;;2.57;1.13;;;;;;;;;;5092875;28;20385;-79
2021/03/12 12:29:47;;;;;;;4.53;0.60;;;;;;;;;;5092813;28;20594;-78
2021/03/12 12:32:13;;;;;;;0.60;0.60;;;;;;;;;;5092706;28;20907;-79
2021/03/12 12:34:40;;;;;;;1.00;0.80;;;;;;;;;;5073925;28;20437;-78
2021/03/12 12:37:06;;;;;;;0.80;0.50;;;;;;;;;;5073940;28;20738;-78
2021/03/12 12:39:38;;;;;;;1.27;0.50;;;9.90;1.00;;;;;;5076658;28;20579;-78
2021/03/12 12:42:03;;;;;;;4.10;0.70;;;9.80;1.00;;;;;;5076616;28;20394;-78
2021/03/12 12:44:29;;;;;;;4.83;0.70;;;9.90;1.00;;;;;;5074287;28;20443;-78
2021/03/12 12:46:55;;;;;;;0.50;0.50;;;;;;;;;;5075347;28;20217;-78
2021/03/12 12:49:21;;;;;;;1.77;0.80;;;10.20;1.00;;;;;;5072762;28;20717;-81
2021/03/12 12:51:46;;;;;;;3.73;0.50;;;10.30;1.00;;;;;;5072515;28;20433;-80
2021/03/12 12:54:13;;;;;;;2.00;0.60;;;10.40;1.00;;;;;;5072765;28;20456;-80
2021/03/12 12:56:39;;;;;;;1.93;0.70;;;;;;;;;;5076330;28;20208;-80
2021/03/12 12:59:05;;;;;;;5.03;1.93;;;;;;;;;;5071636;28;20443;-78
2021/03/12 13:01:31;;;;;;;1.87;0.77;;;10.90;1.00;;;;;;5077438;28;20432;-78
2021/03/12 13:03:57;;;;;;;3.17;0.60;;;;;;;;;;5075771;28;20417;-78
2021/03/12 13:06:23;;;;;;;1.77;0.93;;;;;;;;;;5072174;28;20182;-81
2021/03/12 13:08:49;;;;;;;4.10;1.37;;;;;;;;;;5073421;28;20437;-77
2021/03/12 13:11:14;;;;;;;0.63;0.60;;;11.20;1.00;;;;;;5069277;28;20777;-74
2021/03/12 13:13:41;;;;;;;6.93;1.17;;;;;;;;;;5075216;28;20432;-74
2021/03/12 13:16:07;;;;;;;1.70;0.63;;;;;;;;;;5076113;28;20187;-74
2021/03/12 13:18:35;;;;;;;4.07;1.67;;;;;;;;;;5095112;28;20755;-73
2021/03/12 13:21:05;;;;;;;0.77;0.50;;;11.00;1.00;;;;;;5095492;28;20423;-74
2021/03/12 13:23:34;;;;;;;1.83;0.63;;;;;;;;;;5095174;28;20449;-75
2021/03/12 13:26:00;;;;;;;2.10;0.60;;;;;;;;;;5094739;28;20400;-75
2021/03/12 13:28:26;;;;;;;2.43;0.70;;;11.00;1.00;;;;;;5092855;28;20398;-77
2021/03/12 13:30:52;;;;;;;26.53;12.70;;;10.90;1.00;;;;;;5074311;28;20467;-75
2021/03/12 13:33:18;;;;;;;4.43;1.93;;;11.00;1.00;;;;;;5075651;28;20162;-74
2021/03/12 13:35:45;;;;;;;1.90;1.07;;;11.00;1.00;;;;;;5074481;28;20437;-75
2021/03/12 13:38:11;;;;;;;1.10;0.87;;;11.10;1.00;;;;;;5075311;28;20444;-75
2021/03/12 13:40:37;;;;;;;5.70;2.30;;;11.20;1.00;;;;;;5063004;28;20410;-74
2021/03/12 13:43:04;;;;;;;9.40;0.70;;;;;;;;;;5055543;28;20837;-74
2021/03/12 13:45:34;;;;;;;21.13;9.17;;;11.50;1.00;;;;;;5087943;28;20189;-74